sensor_id;sensor_type;location;lat;lon;timestamp;P1;durP1;ratioP1;P2;durP2;ratioP2
34902;SDS011;21114;44.840;0.214;2023-12-04T00:01:35;3.20;;;1.73;;
34902;SDS011;21114;44.840;0.214;2023-12-04T00:04:01;2.72;;;1.65;;
34902;SDS011;21114;44.840;0.214;2023-12-04T00:06:27;2.75;;;1.48;;
34902;SDS011;21114;44.840;0.214;2023-12-04T00:08:53;2.70;;;1.52;;
34902;SDS011;21114;44.840;0.214;2023-12-04T00:11:19;2.60;;;1.55;;
34902;SDS011;21114;44.840;0.214;2023-12-04T00:13:45;1.70;;;1.48;;
34902;SDS011;21114;44.840;0.214;2023-12-04T00:16:11;1.92;;;1.35;;
34902;SDS011;21114;44.840;0.214;2023-12-04T00:18:37;1.77;;;1.38;;
34902;SDS011;21114;44.840;0.214;2023-12-04T00:21:03;2.17;;;1.50;;
34902;SDS011;21114;44.840;0.214;2023-12-04T00:23:29;3.20;;;1.75;;
34902;SDS011;21114;44.840;0.214;2023-12-04T00:25:55;2.85;;;1.65;;
34902;SDS011;21114;44.840;0.214;2023-12-04T00:28:21;5.97;;;1.45;;
34902;SDS011;21114;44.840;0.214;2023-12-04T00:30:47;3.95;;;1.40;;
34902;SDS011;21114;44.840;0.214;2023-12-04T00:33:13;2.25;;;1.80;;
34902;SDS011;21114;44.840;0.214;2023-12-04T00:35:39;2.55;;;1.40;;
34902;SDS011;21114;44.840;0.214;2023-12-04T00:38:05;3.17;;;1.13;;
34902;SDS011;21114;44.840;0.214;2023-12-04T00:40:31;1.67;;;1.17;;
34902;SDS011;21114;44.840;0.214;2023-12-04T00:42:59;2.05;;;1.67;;
34902;SDS011;21114;44.840;0.214;2023-12-04T00:45:25;3.00;;;1.33;;
34902;SDS011;21114;44.840;0.214;2023-12-04T00:47:51;2.50;;;1.42;;
34902;SDS011;21114;44.840;0.214;2023-12-04T00:50:17;1.73;;;1.23;;
34902;SDS011;21114;44.840;0.214;2023-12-04T00:52:43;1.25;;;0.85;;
34902;SDS011;21114;44.840;0.214;2023-12-04T00:55:09;1.75;;;1.10;;
34902;SDS011;21114;44.840;0.214;2023-12-04T00:57:37;2.08;;;1.30;;
34902;SDS011;21114;44.840;0.214;2023-12-04T01:00:03;1.70;;;1.40;;
34902;SDS011;21114;44.840;0.214;2023-12-04T01:02:31;0.90;;;0.80;;
34902;SDS011;21114;44.840;0.214;2023-12-04T01:04:57;1.65;;;1.10;;
34902;SDS011;21114;44.840;0.214;2023-12-04T01:07:25;3.05;;;1.15;;
34902;SDS011;21114;44.840;0.214;2023-12-04T01:09:51;1.95;;;1.63;;
34902;SDS011;21114;44.840;0.214;2023-12-04T01:12:17;1.85;;;1.35;;
34902;SDS011;21114;44.840;0.214;2023-12-04T01:14:43;2.33;;;1.92;;
34902;SDS011;21114;44.840;0.214;2023-12-04T01:17:09;1.92;;;1.45;;
34902;SDS011;21114;44.840;0.214;2023-12-04T01:19:35;1.83;;;1.23;;
34902;SDS011;21114;44.840;0.214;2023-12-04T01:22:02;1.50;;;1.33;;
34902;SDS011;21114;44.840;0.214;2023-12-04T01:24:28;2.88;;;1.77;;
34902;SDS011;21114;44.840;0.214;2023-12-04T01:26:55;2.20;;;1.30;;
34902;SDS011;21114;44.840;0.214;2023-12-04T01:29:21;2.10;;;1.85;;
34902;SDS011;21114;44.840;0.214;2023-12-04T01:31:47;2.80;;;1.40;;
34902;SDS011;21114;44.840;0.214;2023-12-04T01:34:13;1.75;;;1.27;;
34902;SDS011;21114;44.840;0.214;2023-12-04T01:36:40;1.85;;;0.98;;
34902;SDS011;21114;44.840;0.214;2023-12-04T01:39:06;2.83;;;1.42;;
34902;SDS011;21114;44.840;0.214;2023-12-04T01:41:32;1.80;;;1.10;;
34902;SDS011;21114;44.840;0.214;2023-12-04T01:43:58;1.92;;;1.30;;
34902;SDS011;21114;44.840;0.214;2023-12-04T01:46:24;2.97;;;0.93;;
34902;SDS011;21114;44.840;0.214;2023-12-04T01:48:51;2.67;;;1.23;;
34902;SDS011;21114;44.840;0.214;2023-12-04T01:51:17;1.30;;;1.20;;
34902;SDS011;21114;44.840;0.214;2023-12-04T01:53:45;2.22;;;1.30;;
34902;SDS011;21114;44.840;0.214;2023-12-04T01:56:11;2.90;;;1.48;;
34902;SDS011;21114;44.840;0.214;2023-12-04T01:58:37;2.42;;;1.52;;
34902;SDS011;21114;44.840;0.214;2023-12-04T02:01:04;7.72;;;2.40;;
34902;SDS011;21114;44.840;0.214;2023-12-04T02:03:30;2.35;;;1.13;;
34902;SDS011;21114;44.840;0.214;2023-12-04T02:05:57;2.40;;;1.10;;
34902;SDS011;21114;44.840;0.214;2023-12-04T02:08:25;2.17;;;1.45;;
34902;SDS011;21114;44.840;0.214;2023-12-04T02:10:54;2.85;;;1.65;;
34902;SDS011;21114;44.840;0.214;2023-12-04T02:13:20;2.55;;;1.23;;
34902;SDS011;21114;44.840;0.214;2023-12-04T02:15:46;3.25;;;1.30;;
34902;SDS011;21114;44.840;0.214;2023-12-04T02:18:15;3.63;;;1.50;;
34902;SDS011;21114;44.840;0.214;2023-12-04T02:20:42;2.80;;;1.10;;
34902;SDS011;21114;44.840;0.214;2023-12-04T02:23:08;3.78;;;1.92;;
34902;SDS011;21114;44.840;0.214;2023-12-04T02:25:34;2.85;;;1.20;;
34902;SDS011;21114;44.840;0.214;2023-12-04T02:28:06;3.53;;;2.00;;
34902;SDS011;21114;44.840;0.214;2023-12-04T02:30:34;2.80;;;1.88;;
34902;SDS011;21114;44.840;0.214;2023-12-04T02:33:03;2.22;;;1.20;;
34902;SDS011;21114;44.840;0.214;2023-12-04T02:35:31;1.83;;;1.40;;
34902;SDS011;21114;44.840;0.214;2023-12-04T02:37:58;1.77;;;1.40;;
34902;SDS011;21114;44.840;0.214;2023-12-04T02:40:24;1.90;;;1.40;;
34902;SDS011;21114;44.840;0.214;2023-12-04T02:42:51;2.35;;;0.98;;
34902;SDS011;21114;44.840;0.214;2023-12-04T02:45:17;1.90;;;1.45;;
34902;SDS011;21114;44.840;0.214;2023-12-04T02:47:43;1.98;;;1.02;;
34902;SDS011;21114;44.840;0.214;2023-12-04T02:50:10;3.70;;;1.23;;
34902;SDS011;21114;44.840;0.214;2023-12-04T02:52:36;3.63;;;1.65;;
34902;SDS011;21114;44.840;0.214;2023-12-04T02:55:02;1.13;;;1.02;;
34902;SDS011;21114;44.840;0.214;2023-12-04T02:57:28;1.73;;;1.20;;
34902;SDS011;21114;44.840;0.214;2023-12-04T02:59:54;1.67;;;1.30;;
34902;SDS011;21114;44.840;0.214;2023-12-04T03:02:20;2.13;;;1.42;;
34902;SDS011;21114;44.840;0.214;2023-12-04T03:04:50;1.92;;;1.38;;
34902;SDS011;21114;44.840;0.214;2023-12-04T03:07:16;2.65;;;1.27;;
34902;SDS011;21114;44.840;0.214;2023-12-04T03:09:45;3.13;;;1.65;;
34902;SDS011;21114;44.840;0.214;2023-12-04T03:12:11;2.20;;;1.13;;
34902;SDS011;21114;44.840;0.214;2023-12-04T03:14:37;1.38;;;1.02;;
34902;SDS011;21114;44.840;0.214;2023-12-04T03:17:03;1.98;;;0.93;;
34902;SDS011;21114;44.840;0.214;2023-12-04T03:19:29;4.07;;;1.20;;
34902;SDS011;21114;44.840;0.214;2023-12-04T03:21:55;2.25;;;1.50;;
34902;SDS011;21114;44.840;0.214;2023-12-04T03:24:21;2.90;;;1.88;;
34902;SDS011;21114;44.840;0.214;2023-12-04T03:26:47;3.00;;;1.65;;
34902;SDS011;21114;44.840;0.214;2023-12-04T03:29:13;1.60;;;1.02;;
34902;SDS011;21114;44.840;0.214;2023-12-04T03:31:41;1.45;;;1.20;;
34902;SDS011;21114;44.840;0.214;2023-12-04T03:34:07;1.52;;;1.00;;
34902;SDS011;21114;44.840;0.214;2023-12-04T03:36:33;2.03;;;1.67;;
34902;SDS011;21114;44.840;0.214;2023-12-04T03:38:59;2.40;;;1.25;;
34902;SDS011;21114;44.840;0.214;2023-12-04T03:41:25;2.60;;;1.10;;
34902;SDS011;21114;44.840;0.214;2023-12-04T03:43:51;1.67;;;1.20;;
34902;SDS011;21114;44.840;0.214;2023-12-04T03:46:17;1.88;;;1.67;;
34902;SDS011;21114;44.840;0.214;2023-12-04T03:48:44;3.05;;;1.38;;
34902;SDS011;21114;44.840;0.214;2023-12-04T03:51:10;2.55;;;1.42;;
34902;SDS011;21114;44.840;0.214;2023-12-04T03:53:37;2.92;;;1.65;;
34902;SDS011;21114;44.840;0.214;2023-12-04T03:56:03;2.40;;;1.58;;
34902;SDS011;21114;44.840;0.214;2023-12-04T03:58:29;2.65;;;1.98;;
34902;SDS011;21114;44.840;0.214;2023-12-04T04:00:55;3.33;;;1.63;;
34902;SDS011;21114;44.840;0.214;2023-12-04T04:03:21;1.52;;;1.02;;
34902;SDS011;21114;44.840;0.214;2023-12-04T04:05:47;1.83;;;1.20;;
34902;SDS011;21114;44.840;0.214;2023-12-04T04:08:13;1.50;;;1.10;;
34902;SDS011;21114;44.840;0.214;2023-12-04T04:10:39;2.08;;;1.80;;
34902;SDS011;21114;44.840;0.214;2023-12-04T04:13:05;2.13;;;1.40;;
34902;SDS011;21114;44.840;0.214;2023-12-04T04:15:31;2.45;;;2.13;;
34902;SDS011;21114;44.840;0.214;2023-12-04T04:17:57;2.03;;;1.80;;
34902;SDS011;21114;44.840;0.214;2023-12-04T04:20:23;2.95;;;1.88;;
34902;SDS011;21114;44.840;0.214;2023-12-04T04:22:49;5.15;;;1.77;;
34902;SDS011;21114;44.840;0.214;2023-12-04T04:25:15;5.07;;;1.92;;
34902;SDS011;21114;44.840;0.214;2023-12-04T04:27:41;3.30;;;1.95;;
34902;SDS011;21114;44.840;0.214;2023-12-04T04:30:07;2.50;;;1.70;;
34902;SDS011;21114;44.840;0.214;2023-12-04T04:32:33;3.15;;;2.00;;
34902;SDS011;21114;44.840;0.214;2023-12-04T04:34:59;2.10;;;1.20;;
34902;SDS011;21114;44.840;0.214;2023-12-04T04:37:26;2.17;;;1.73;;
34902;SDS011;21114;44.840;0.214;2023-12-04T04:39:52;2.72;;;1.60;;
34902;SDS011;21114;44.840;0.214;2023-12-04T04:42:18;2.45;;;1.83;;
34902;SDS011;21114;44.840;0.214;2023-12-04T04:44:44;2.67;;;1.70;;
34902;SDS011;21114;44.840;0.214;2023-12-04T04:47:10;2.38;;;1.63;;
34902;SDS011;21114;44.840;0.214;2023-12-04T04:49:36;3.10;;;2.40;;
34902;SDS011;21114;44.840;0.214;2023-12-04T04:52:02;2.35;;;1.38;;
34902;SDS011;21114;44.840;0.214;2023-12-04T04:54:30;1.70;;;1.33;;
34902;SDS011;21114;44.840;0.214;2023-12-04T04:56:57;2.17;;;1.65;;
34902;SDS011;21114;44.840;0.214;2023-12-04T04:59:23;1.67;;;1.20;;
34902;SDS011;21114;44.840;0.214;2023-12-04T05:01:52;3.70;;;2.40;;
34902;SDS011;21114;44.840;0.214;2023-12-04T05:04:18;2.33;;;1.73;;
34902;SDS011;21114;44.840;0.214;2023-12-04T05:06:44;1.77;;;1.45;;
34902;SDS011;21114;44.840;0.214;2023-12-04T05:09:10;4.53;;;2.50;;
34902;SDS011;21114;44.840;0.214;2023-12-04T05:11:36;5.68;;;2.85;;
34902;SDS011;21114;44.840;0.214;2023-12-04T05:14:03;1.88;;;1.40;;
34902;SDS011;21114;44.840;0.214;2023-12-04T05:16:29;3.25;;;1.52;;
34902;SDS011;21114;44.840;0.214;2023-12-04T05:18:55;2.00;;;1.20;;
34902;SDS011;21114;44.840;0.214;2023-12-04T05:21:21;2.85;;;1.40;;
34902;SDS011;21114;44.840;0.214;2023-12-04T05:23:47;2.70;;;1.58;;
34902;SDS011;21114;44.840;0.214;2023-12-04T05:26:13;2.05;;;1.85;;
34902;SDS011;21114;44.840;0.214;2023-12-04T05:28:39;3.22;;;1.60;;
34902;SDS011;21114;44.840;0.214;2023-12-04T05:31:05;2.85;;;1.50;;
34902;SDS011;21114;44.840;0.214;2023-12-04T05:33:31;2.30;;;1.58;;
34902;SDS011;21114;44.840;0.214;2023-12-04T05:35:57;2.10;;;1.42;;
34902;SDS011;21114;44.840;0.214;2023-12-04T05:38:23;2.33;;;1.55;;
34902;SDS011;21114;44.840;0.214;2023-12-04T05:40:49;2.28;;;1.42;;
34902;SDS011;21114;44.840;0.214;2023-12-04T05:43:15;2.20;;;1.48;;
34902;SDS011;21114;44.840;0.214;2023-12-04T05:45:41;6.13;;;2.20;;
34902;SDS011;21114;44.840;0.214;2023-12-04T05:48:07;2.83;;;2.00;;
34902;SDS011;21114;44.840;0.214;2023-12-04T05:50:33;5.45;;;1.90;;
34902;SDS011;21114;44.840;0.214;2023-12-04T05:52:59;1.70;;;1.40;;
34902;SDS011;21114;44.840;0.214;2023-12-04T05:55:25;3.92;;;1.90;;
34902;SDS011;21114;44.840;0.214;2023-12-04T05:57:52;4.50;;;1.90;;
34902;SDS011;21114;44.840;0.214;2023-12-04T06:00:18;1.95;;;1.77;;
34902;SDS011;21114;44.840;0.214;2023-12-04T06:02:44;1.60;;;1.42;;
34902;SDS011;21114;44.840;0.214;2023-12-04T06:05:10;3.17;;;2.75;;
34902;SDS011;21114;44.840;0.214;2023-12-04T06:07:36;2.00;;;1.52;;
34902;SDS011;21114;44.840;0.214;2023-12-04T06:10:03;2.50;;;1.50;;
34902;SDS011;21114;44.840;0.214;2023-12-04T06:12:33;1.95;;;1.55;;
34902;SDS011;21114;44.840;0.214;2023-12-04T06:14:59;3.78;;;1.90;;
34902;SDS011;21114;44.840;0.214;2023-12-04T06:17:25;2.97;;;2.15;;
34902;SDS011;21114;44.840;0.214;2023-12-04T06:19:52;4.28;;;2.63;;
34902;SDS011;21114;44.840;0.214;2023-12-04T06:22:18;2.53;;;1.88;;
34902;SDS011;21114;44.840;0.214;2023-12-04T06:24:46;4.18;;;2.00;;
34902;SDS011;21114;44.840;0.214;2023-12-04T06:27:13;3.05;;;2.08;;
34902;SDS011;21114;44.840;0.214;2023-12-04T06:29:40;2.38;;;2.00;;
34902;SDS011;21114;44.840;0.214;2023-12-04T06:32:07;4.85;;;2.58;;
34902;SDS011;21114;44.840;0.214;2023-12-04T06:34:33;3.42;;;2.40;;
34902;SDS011;21114;44.840;0.214;2023-12-04T06:36:59;2.10;;;1.85;;
34902;SDS011;21114;44.840;0.214;2023-12-04T06:39:28;2.65;;;1.83;;
34902;SDS011;21114;44.840;0.214;2023-12-04T06:41:58;2.47;;;2.08;;
34902;SDS011;21114;44.840;0.214;2023-12-04T06:44:25;2.55;;;2.03;;
34902;SDS011;21114;44.840;0.214;2023-12-04T06:46:51;2.92;;;1.65;;
34902;SDS011;21114;44.840;0.214;2023-12-04T06:49:17;2.40;;;1.80;;
34902;SDS011;21114;44.840;0.214;2023-12-04T06:51:44;3.20;;;1.90;;
34902;SDS011;21114;44.840;0.214;2023-12-04T06:54:10;3.05;;;2.65;;
34902;SDS011;21114;44.840;0.214;2023-12-04T06:56:38;2.10;;;1.60;;
34902;SDS011;21114;44.840;0.214;2023-12-04T06:59:04;3.97;;;2.05;;
34902;SDS011;21114;44.840;0.214;2023-12-04T07:01:30;2.88;;;1.67;;
34902;SDS011;21114;44.840;0.214;2023-12-04T07:03:56;2.10;;;1.77;;
34902;SDS011;21114;44.840;0.214;2023-12-04T07:06:22;2.45;;;2.20;;
34902;SDS011;21114;44.840;0.214;2023-12-04T07:08:49;2.10;;;1.90;;
34902;SDS011;21114;44.840;0.214;2023-12-04T07:11:15;3.13;;;2.40;;
34902;SDS011;21114;44.840;0.214;2023-12-04T07:13:41;3.28;;;2.45;;
34902;SDS011;21114;44.840;0.214;2023-12-04T07:16:07;4.53;;;2.95;;
34902;SDS011;21114;44.840;0.214;2023-12-04T07:18:34;2.22;;;2.03;;
34902;SDS011;21114;44.840;0.214;2023-12-04T07:21:00;2.83;;;2.00;;
34902;SDS011;21114;44.840;0.214;2023-12-04T07:23:26;3.03;;;1.80;;
34902;SDS011;21114;44.840;0.214;2023-12-04T07:25:52;6.90;;;2.90;;
34902;SDS011;21114;44.840;0.214;2023-12-04T07:28:18;7.95;;;2.72;;
34902;SDS011;21114;44.840;0.214;2023-12-04T07:30:44;3.70;;;2.50;;
34902;SDS011;21114;44.840;0.214;2023-12-04T07:33:11;3.70;;;1.85;;
34902;SDS011;21114;44.840;0.214;2023-12-04T07:35:37;3.70;;;1.80;;
34902;SDS011;21114;44.840;0.214;2023-12-04T07:38:03;3.63;;;2.05;;
34902;SDS011;21114;44.840;0.214;2023-12-04T07:40:30;3.15;;;1.70;;
34902;SDS011;21114;44.840;0.214;2023-12-04T07:42:56;3.55;;;2.15;;
34902;SDS011;21114;44.840;0.214;2023-12-04T07:45:22;3.35;;;1.92;;
34902;SDS011;21114;44.840;0.214;2023-12-04T07:47:49;3.05;;;2.17;;
34902;SDS011;21114;44.840;0.214;2023-12-04T07:50:15;4.13;;;2.50;;
34902;SDS011;21114;44.840;0.214;2023-12-04T07:52:42;2.53;;;2.30;;
34902;SDS011;21114;44.840;0.214;2023-12-04T07:55:08;5.65;;;2.92;;
34902;SDS011;21114;44.840;0.214;2023-12-04T07:57:36;6.55;;;2.60;;
34902;SDS011;21114;44.840;0.214;2023-12-04T08:00:03;4.43;;;2.47;;
34902;SDS011;21114;44.840;0.214;2023-12-04T08:02:29;2.72;;;1.88;;
34902;SDS011;21114;44.840;0.214;2023-12-04T08:04:55;3.40;;;2.25;;
34902;SDS011;21114;44.840;0.214;2023-12-04T08:07:22;4.90;;;2.15;;
34902;SDS011;21114;44.840;0.214;2023-12-04T08:09:48;6.13;;;2.47;;
34902;SDS011;21114;44.840;0.214;2023-12-04T08:12:14;3.65;;;2.20;;
34902;SDS011;21114;44.840;0.214;2023-12-04T08:14:40;3.35;;;2.25;;
34902;SDS011;21114;44.840;0.214;2023-12-04T08:17:06;2.80;;;2.28;;
34902;SDS011;21114;44.840;0.214;2023-12-04T08:19:32;4.28;;;2.22;;
34902;SDS011;21114;44.840;0.214;2023-12-04T08:21:59;5.75;;;3.85;;
34902;SDS011;21114;44.840;0.214;2023-12-04T08:24:25;4.55;;;2.90;;
34902;SDS011;21114;44.840;0.214;2023-12-04T08:26:51;3.92;;;2.38;;
34902;SDS011;21114;44.840;0.214;2023-12-04T08:29:17;4.80;;;2.85;;
34902;SDS011;21114;44.840;0.214;2023-12-04T08:31:43;4.50;;;2.78;;
34902;SDS011;21114;44.840;0.214;2023-12-04T08:34:09;4.70;;;2.20;;
34902;SDS011;21114;44.840;0.214;2023-12-04T08:36:35;4.10;;;2.92;;
34902;SDS011;21114;44.840;0.214;2023-12-04T08:39:01;3.53;;;2.50;;
34902;SDS011;21114;44.840;0.214;2023-12-04T08:41:27;4.70;;;2.17;;
34902;SDS011;21114;44.840;0.214;2023-12-04T08:43:53;3.22;;;2.05;;
34902;SDS011;21114;44.840;0.214;2023-12-04T08:46:20;2.97;;;1.90;;
34902;SDS011;21114;44.840;0.214;2023-12-04T08:48:54;2.47;;;1.77;;
34902;SDS011;21114;44.840;0.214;2023-12-04T08:51:20;2.97;;;1.90;;
34902;SDS011;21114;44.840;0.214;2023-12-04T08:53:46;4.13;;;2.10;;
34902;SDS011;21114;44.840;0.214;2023-12-04T08:56:12;2.83;;;2.22;;
34902;SDS011;21114;44.840;0.214;2023-12-04T08:58:38;4.93;;;3.17;;
34902;SDS011;21114;44.840;0.214;2023-12-04T09:01:04;3.25;;;1.60;;
34902;SDS011;21114;44.840;0.214;2023-12-04T09:03:30;4.45;;;1.58;;
34902;SDS011;21114;44.840;0.214;2023-12-04T09:05:57;5.03;;;2.05;;
34902;SDS011;21114;44.840;0.214;2023-12-04T09:08:23;3.75;;;1.90;;
34902;SDS011;21114;44.840;0.214;2023-12-04T09:10:51;3.13;;;1.70;;
34902;SDS011;21114;44.840;0.214;2023-12-04T09:13:17;2.42;;;1.85;;
34902;SDS011;21114;44.840;0.214;2023-12-04T09:15:43;2.55;;;1.45;;
34902;SDS011;21114;44.840;0.214;2023-12-04T09:18:09;3.05;;;1.77;;
34902;SDS011;21114;44.840;0.214;2023-12-04T09:20:35;2.28;;;1.38;;
34902;SDS011;21114;44.840;0.214;2023-12-04T09:23:01;2.92;;;2.22;;
34902;SDS011;21114;44.840;0.214;2023-12-04T09:25:27;2.33;;;1.50;;
34902;SDS011;21114;44.840;0.214;2023-12-04T09:27:54;2.03;;;1.50;;
34902;SDS011;21114;44.840;0.214;2023-12-04T09:30:20;1.40;;;1.10;;
34902;SDS011;21114;44.840;0.214;2023-12-04T09:32:47;1.80;;;1.25;;
34902;SDS011;21114;44.840;0.214;2023-12-04T09:35:13;1.80;;;1.40;;
34902;SDS011;21114;44.840;0.214;2023-12-04T09:37:41;1.63;;;1.00;;
34902;SDS011;21114;44.840;0.214;2023-12-04T09:40:08;2.35;;;1.33;;
34902;SDS011;21114;44.840;0.214;2023-12-04T09:42:34;2.53;;;1.17;;
34902;SDS011;21114;44.840;0.214;2023-12-04T09:45:00;2.17;;;1.98;;
34902;SDS011;21114;44.840;0.214;2023-12-04T09:47:26;1.40;;;0.90;;
34902;SDS011;21114;44.840;0.214;2023-12-04T09:49:53;2.45;;;1.73;;
34902;SDS011;21114;44.840;0.214;2023-12-04T09:52:19;2.20;;;1.42;;
34902;SDS011;21114;44.840;0.214;2023-12-04T09:54:46;1.17;;;1.08;;
34902;SDS011;21114;44.840;0.214;2023-12-04T09:57:12;1.33;;;1.00;;
34902;SDS011;21114;44.840;0.214;2023-12-04T09:59:38;2.90;;;1.80;;
34902;SDS011;21114;44.840;0.214;2023-12-04T10:02:04;2.38;;;1.63;;
34902;SDS011;21114;44.840;0.214;2023-12-04T10:04:31;2.95;;;1.77;;
34902;SDS011;21114;44.840;0.214;2023-12-04T10:06:58;3.15;;;1.40;;
34902;SDS011;21114;44.840;0.214;2023-12-04T10:09:24;1.80;;;1.30;;
34902;SDS011;21114;44.840;0.214;2023-12-04T10:11:50;2.10;;;1.38;;
34902;SDS011;21114;44.840;0.214;2023-12-04T10:14:20;3.08;;;1.85;;
34902;SDS011;21114;44.840;0.214;2023-12-04T10:16:46;3.63;;;1.35;;
34902;SDS011;21114;44.840;0.214;2023-12-04T10:19:16;4.53;;;1.55;;
34902;SDS011;21114;44.840;0.214;2023-12-04T10:21:43;1.80;;;1.38;;
34902;SDS011;21114;44.840;0.214;2023-12-04T10:24:09;1.55;;;1.30;;
34902;SDS011;21114;44.840;0.214;2023-12-04T10:26:35;2.10;;;1.23;;
34902;SDS011;21114;44.840;0.214;2023-12-04T10:29:03;2.45;;;2.25;;
34902;SDS011;21114;44.840;0.214;2023-12-04T10:31:33;2.78;;;1.70;;
34902;SDS011;21114;44.840;0.214;2023-12-04T10:34:00;1.40;;;1.13;;
34902;SDS011;21114;44.840;0.214;2023-12-04T10:36:26;1.48;;;1.30;;
34902;SDS011;21114;44.840;0.214;2023-12-04T10:39:01;1.50;;;1.10;;
34902;SDS011;21114;44.840;0.214;2023-12-04T10:41:30;2.35;;;1.50;;
34902;SDS011;21114;44.840;0.214;2023-12-04T10:43:58;2.85;;;1.67;;
34902;SDS011;21114;44.840;0.214;2023-12-04T10:46:26;2.55;;;1.88;;
34902;SDS011;21114;44.840;0.214;2023-12-04T10:48:52;1.85;;;1.10;;
34902;SDS011;21114;44.840;0.214;2023-12-04T10:51:20;2.97;;;1.38;;
34902;SDS011;21114;44.840;0.214;2023-12-04T10:53:48;2.63;;;1.83;;
34902;SDS011;21114;44.840;0.214;2023-12-04T10:56:23;4.55;;;1.70;;
34902;SDS011;21114;44.840;0.214;2023-12-04T10:58:51;4.07;;;1.80;;
34902;SDS011;21114;44.840;0.214;2023-12-04T11:01:17;2.00;;;1.33;;
34902;SDS011;21114;44.840;0.214;2023-12-04T11:03:45;3.50;;;1.92;;
34902;SDS011;21114;44.840;0.214;2023-12-04T11:06:15;2.10;;;1.33;;
34902;SDS011;21114;44.840;0.214;2023-12-04T11:08:42;3.47;;;1.83;;
34902;SDS011;21114;44.840;0.214;2023-12-04T11:11:12;4.63;;;2.50;;
34902;SDS011;21114;44.840;0.214;2023-12-04T11:13:41;2.15;;;1.95;;
34902;SDS011;21114;44.840;0.214;2023-12-04T11:16:20;2.35;;;1.50;;
34902;SDS011;21114;44.840;0.214;2023-12-04T11:18:51;1.92;;;1.65;;
34902;SDS011;21114;44.840;0.214;2023-12-04T11:21:17;2.20;;;1.40;;
34902;SDS011;21114;44.840;0.214;2023-12-04T11:23:44;1.98;;;1.42;;
34902;SDS011;21114;44.840;0.214;2023-12-04T11:26:11;1.95;;;1.30;;
34902;SDS011;21114;44.840;0.214;2023-12-04T11:28:37;2.40;;;0.90;;
34902;SDS011;21114;44.840;0.214;2023-12-04T11:31:04;1.80;;;1.00;;
34902;SDS011;21114;44.840;0.214;2023-12-04T11:33:37;4.68;;;1.50;;
34902;SDS011;21114;44.840;0.214;2023-12-04T11:36:10;3.53;;;1.58;;
34902;SDS011;21114;44.840;0.214;2023-12-04T11:38:37;1.90;;;1.10;;
34902;SDS011;21114;44.840;0.214;2023-12-04T11:43:42;0.80;;;0.68;;
34902;SDS011;21114;44.840;0.214;2023-12-04T11:46:09;1.20;;;0.60;;
34902;SDS011;21114;44.840;0.214;2023-12-04T11:48:39;1.88;;;0.85;;
34902;SDS011;21114;44.840;0.214;2023-12-04T11:51:05;2.08;;;0.70;;
34902;SDS011;21114;44.840;0.214;2023-12-04T11:53:38;1.35;;;0.68;;
34902;SDS011;21114;44.840;0.214;2023-12-04T11:56:10;0.98;;;0.80;;
34902;SDS011;21114;44.840;0.214;2023-12-04T11:58:43;1.98;;;0.98;;
34902;SDS011;21114;44.840;0.214;2023-12-04T12:01:09;1.75;;;0.80;;
34902;SDS011;21114;44.840;0.214;2023-12-04T12:03:35;2.22;;;0.75;;
34902;SDS011;21114;44.840;0.214;2023-12-04T12:06:01;1.95;;;0.80;;
34902;SDS011;21114;44.840;0.214;2023-12-04T12:08:28;1.33;;;0.70;;
34902;SDS011;21114;44.840;0.214;2023-12-04T12:10:54;1.67;;;0.55;;
34902;SDS011;21114;44.840;0.214;2023-12-04T12:13:20;1.40;;;0.52;;
34902;SDS011;21114;44.840;0.214;2023-12-04T12:15:47;1.15;;;0.50;;
34902;SDS011;21114;44.840;0.214;2023-12-04T12:18:15;7.53;;;1.73;;
34902;SDS011;21114;44.840;0.214;2023-12-04T12:20:42;3.00;;;1.00;;
34902;SDS011;21114;44.840;0.214;2023-12-04T12:23:08;13.15;;;1.55;;
34902;SDS011;21114;44.840;0.214;2023-12-04T12:25:34;2.90;;;1.10;;
34902;SDS011;21114;44.840;0.214;2023-12-04T12:28:04;4.55;;;0.93;;
34902;SDS011;21114;44.840;0.214;2023-12-04T12:30:32;2.88;;;1.05;;
34902;SDS011;21114;44.840;0.214;2023-12-04T12:32:59;2.85;;;2.05;;
34902;SDS011;21114;44.840;0.214;2023-12-04T12:35:25;2.25;;;1.38;;
34902;SDS011;21114;44.840;0.214;2023-12-04T12:37:51;3.13;;;1.02;;
34902;SDS011;21114;44.840;0.214;2023-12-04T12:40:20;2.00;;;1.05;;
34902;SDS011;21114;44.840;0.214;2023-12-04T12:42:46;3.63;;;1.27;;
34902;SDS011;21114;44.840;0.214;2023-12-04T12:45:13;5.45;;;1.33;;
34902;SDS011;21114;44.840;0.214;2023-12-04T12:47:42;2.83;;;0.93;;
34902;SDS011;21114;44.840;0.214;2023-12-04T12:50:09;4.05;;;1.65;;
34902;SDS011;21114;44.840;0.214;2023-12-04T12:52:38;7.75;;;2.45;;
34902;SDS011;21114;44.840;0.214;2023-12-04T12:55:05;5.82;;;2.05;;
34902;SDS011;21114;44.840;0.214;2023-12-04T12:57:32;7.45;;;2.53;;
34902;SDS011;21114;44.840;0.214;2023-12-04T12:59:58;2.05;;;1.45;;
34902;SDS011;21114;44.840;0.214;2023-12-04T13:02:24;4.03;;;1.30;;
34902;SDS011;21114;44.840;0.214;2023-12-04T13:04:50;4.18;;;1.45;;
34902;SDS011;21114;44.840;0.214;2023-12-04T13:07:16;5.97;;;1.88;;
34902;SDS011;21114;44.840;0.214;2023-12-04T13:09:43;4.88;;;2.20;;
34902;SDS011;21114;44.840;0.214;2023-12-04T13:12:10;10.95;;;2.17;;
34902;SDS011;21114;44.840;0.214;2023-12-04T13:14:36;4.13;;;1.33;;
34902;SDS011;21114;44.840;0.214;2023-12-04T13:17:03;5.38;;;2.33;;
34902;SDS011;21114;44.840;0.214;2023-12-04T13:19:29;5.47;;;1.83;;
34902;SDS011;21114;44.840;0.214;2023-12-04T13:21:56;7.15;;;2.03;;
34902;SDS011;21114;44.840;0.214;2023-12-04T13:24:22;8.32;;;3.55;;
34902;SDS011;21114;44.840;0.214;2023-12-04T13:26:48;7.50;;;1.70;;
34902;SDS011;21114;44.840;0.214;2023-12-04T13:29:14;5.65;;;1.73;;
34902;SDS011;21114;44.840;0.214;2023-12-04T13:31:44;5.72;;;2.03;;
34902;SDS011;21114;44.840;0.214;2023-12-04T13:34:11;7.68;;;1.58;;
34902;SDS011;21114;44.840;0.214;2023-12-04T13:36:37;9.18;;;2.20;;
34902;SDS011;21114;44.840;0.214;2023-12-04T13:39:03;7.82;;;2.95;;
34902;SDS011;21114;44.840;0.214;2023-12-04T13:41:32;4.88;;;1.80;;
34902;SDS011;21114;44.840;0.214;2023-12-04T13:44:17;7.95;;;1.67;;
34902;SDS011;21114;44.840;0.214;2023-12-04T13:46:43;7.97;;;2.65;;
34902;SDS011;21114;44.840;0.214;2023-12-04T13:49:09;6.55;;;3.03;;
34902;SDS011;21114;44.840;0.214;2023-12-04T13:51:36;6.65;;;2.30;;
34902;SDS011;21114;44.840;0.214;2023-12-04T13:54:05;6.63;;;1.70;;
34902;SDS011;21114;44.840;0.214;2023-12-04T13:56:45;4.57;;;1.70;;
34902;SDS011;21114;44.840;0.214;2023-12-04T13:59:18;9.20;;;3.80;;
34902;SDS011;21114;44.840;0.214;2023-12-04T14:01:45;7.35;;;2.10;;
34902;SDS011;21114;44.840;0.214;2023-12-04T14:04:11;11.65;;;4.25;;
34902;SDS011;21114;44.840;0.214;2023-12-04T14:06:37;8.10;;;3.17;;
34902;SDS011;21114;44.840;0.214;2023-12-04T14:09:03;14.63;;;3.20;;
34902;SDS011;21114;44.840;0.214;2023-12-04T14:11:34;7.22;;;2.28;;
34902;SDS011;21114;44.840;0.214;2023-12-04T14:14:01;7.97;;;2.10;;
34902;SDS011;21114;44.840;0.214;2023-12-04T14:16:27;8.50;;;2.78;;
34902;SDS011;21114;44.840;0.214;2023-12-04T14:18:53;10.27;;;1.95;;
34902;SDS011;21114;44.840;0.214;2023-12-04T14:21:19;12.68;;;2.42;;
34902;SDS011;21114;44.840;0.214;2023-12-04T14:23:45;6.22;;;1.80;;
34902;SDS011;21114;44.840;0.214;2023-12-04T14:26:11;6.72;;;2.38;;
34902;SDS011;21114;44.840;0.214;2023-12-04T14:28:37;7.60;;;2.20;;
34902;SDS011;21114;44.840;0.214;2023-12-04T14:31:05;7.78;;;2.08;;
34902;SDS011;21114;44.840;0.214;2023-12-04T14:33:32;8.75;;;1.80;;
34902;SDS011;21114;44.840;0.214;2023-12-04T14:35:58;5.15;;;2.03;;
34902;SDS011;21114;44.840;0.214;2023-12-04T14:38:24;7.40;;;2.00;;
34902;SDS011;21114;44.840;0.214;2023-12-04T14:40:51;7.72;;;1.65;;
34902;SDS011;21114;44.840;0.214;2023-12-04T14:43:17;9.93;;;2.50;;
34902;SDS011;21114;44.840;0.214;2023-12-04T14:45:43;8.40;;;2.58;;
34902;SDS011;21114;44.840;0.214;2023-12-04T14:48:09;11.57;;;2.58;;